Terminal Aerodrome Forecast
Issued by NWS

Home | Current Version | Previous Version | Text Only | Print | Product List | Glossary On
Versions: 1 2 3 4 5 6 7 8 9 10 11 12 13 14 15 16 17 18 19 20 21 22 23
000
FTUS46 KEKA 211143
TAFCEC
TAF
KCEC 211143Z 2112/2212 10009KT 6SM -RA SCT025 OVC050
     FM211800 16015G23KT 6SM -RA BR FEW015 SCT030 OVC050
      WS020/20045KT
     FM220600 17010KT P6SM VCSH OVC080 WS020/18040KT=

USA.gov is the U.S. government's official web portal to all federal, state and local government web resources and services.